createdAt,value
2018-03-03T00:01:26.309Z,108.10
2018-03-03T00:03:52.257Z,109.78
2018-03-03T00:06:18.349Z,108.93
2018-03-03T00:08:44.300Z,113.12
2018-03-03T00:11:10.231Z,114.82
2018-03-03T00:13:36.952Z,107.60
2018-03-03T00:16:02.912Z,122.20
2018-03-03T00:18:29.646Z,119.07
2018-03-03T00:20:56.337Z,109.53
2018-03-03T00:23:22.287Z,109.22
2018-03-03T00:25:48.381Z,126.45
2018-03-03T00:28:14.315Z,105.50
2018-03-03T00:30:40.320Z,125.55
2018-03-03T00:33:06.257Z,107.90
2018-03-03T00:35:32.505Z,113.15
2018-03-03T00:37:58.488Z,113.15
2018-03-03T00:40:24.431Z,108.63
2018-03-03T00:42:50.553Z,115.40
2018-03-03T00:45:16.493Z,120.07
2018-03-03T00:47:42.473Z,107.23
2018-03-03T00:50:08.433Z,119.25
2018-03-03T00:52:34.368Z,118.70
2018-03-03T00:55:01.086Z,111.90
2018-03-03T00:57:27.058Z,114.40
2018-03-03T00:59:53.151Z,131.68
2018-03-03T01:02:19.090Z,125.10
2018-03-03T01:04:45.811Z,126.95
2018-03-03T01:07:11.767Z,131.87
2018-03-03T01:09:37.869Z,127.00
2018-03-03T01:12:04.552Z,115.00
2018-03-03T01:14:30.495Z,108.75
2018-03-03T01:16:56.459Z,116.53
2018-03-03T01:19:23.160Z,125.87
2018-03-03T01:21:49.128Z,118.30
2018-03-03T01:24:15.068Z,121.50
2018-03-03T01:26:41.140Z,118.28
2018-03-03T01:29:07.071Z,121.87
2018-03-03T01:31:32.992Z,127.87
2018-03-03T01:33:59.071Z,135.93
2018-03-03T01:36:25.012Z,127.82
2018-03-03T01:38:50.979Z,146.85
2018-03-03T01:41:17.069Z,132.18
2018-03-03T01:43:43.047Z,122.95
2018-03-03T01:46:09.011Z,131.93
2018-03-03T01:48:35.077Z,118.15
2018-03-03T01:51:01.013Z,116.47
2018-03-03T01:53:26.980Z,112.43
2018-03-03T01:55:52.917Z,119.50
2018-03-03T01:58:18.864Z,117.85
2018-03-03T02:00:44.843Z,121.05
2018-03-03T02:03:10.768Z,121.22
2018-03-03T02:05:36.875Z,124.93
2018-03-03T02:08:02.807Z,113.97
2018-03-03T02:10:28.765Z,118.18
2018-03-03T02:12:55.436Z,128.27
2018-03-03T02:15:21.404Z,131.77
2018-03-03T02:17:47.337Z,134.98
2018-03-03T02:20:14.163Z,127.57
2018-03-03T02:22:40.121Z,138.95
2018-03-03T02:25:06.040Z,139.32
2018-03-03T02:27:32.000Z,148.63
2018-03-03T02:29:57.938Z,130.20
2018-03-03T02:32:24.029Z,128.12
2018-03-03T02:34:50.129Z,147.25
2018-03-03T02:37:16.796Z,141.70
2018-03-03T02:39:42.789Z,140.55
2018-03-03T02:42:09.508Z,133.65
2018-03-03T02:44:35.467Z,137.62
2018-03-03T02:47:01.408Z,149.75
2018-03-03T02:49:27.411Z,146.62
2018-03-03T02:51:53.357Z,145.98
2018-03-03T02:54:19.296Z,143.52
2018-03-03T02:56:45.384Z,134.55
2018-03-03T02:59:11.333Z,148.50
2018-03-03T03:01:37.304Z,141.70
2018-03-03T03:04:03.977Z,139.55
2018-03-03T03:06:30.076Z,142.05
2018-03-03T03:08:56.024Z,143.82
2018-03-03T03:11:22.078Z,134.63
2018-03-03T03:13:48.036Z,139.62
2018-03-03T03:16:14.727Z,143.87
2018-03-03T03:18:40.679Z,147.87
2018-03-03T03:21:07.372Z,127.00
2018-03-03T03:23:33.357Z,138.65
2018-03-03T03:26:00.047Z,144.95
2018-03-03T03:28:26.125Z,146.73
2018-03-03T03:30:52.796Z,143.05
2018-03-03T03:33:18.754Z,155.60
2018-03-03T03:35:44.757Z,141.12
2018-03-03T03:38:10.644Z,142.50
2018-03-03T03:40:36.587Z,156.67
2018-03-03T03:43:02.676Z,137.80
2018-03-03T03:45:29.401Z,134.98
2018-03-03T03:47:56.103Z,150.00
2018-03-03T03:50:22.075Z,137.18
2018-03-03T03:52:48.744Z,154.63
2018-03-03T03:55:14.833Z,153.50
2018-03-03T03:57:41.508Z,153.10
2018-03-03T04:00:07.483Z,150.82
2018-03-03T04:02:34.168Z,143.02
2018-03-03T04:05:00.107Z,144.80
2018-03-03T04:07:26.085Z,147.25
2018-03-03T04:09:52.748Z,141.18
2018-03-03T04:12:18.819Z,153.95
2018-03-03T04:14:44.753Z,140.77
2018-03-03T04:17:11.484Z,128.52
2018-03-03T04:19:37.425Z,163.18
2018-03-03T04:22:04.133Z,150.77
2018-03-03T04:24:30.067Z,144.43
2018-03-03T04:26:56.001Z,144.32
2018-03-03T04:29:22.714Z,148.90
2018-03-03T04:31:48.651Z,148.77
2018-03-03T04:34:14.751Z,141.75
2018-03-03T04:36:40.835Z,145.18
2018-03-03T04:39:06.809Z,154.77
2018-03-03T04:41:32.768Z,154.02
2018-03-03T04:43:58.736Z,156.00
2018-03-03T04:46:24.697Z,169.82
2018-03-03T04:48:51.405Z,140.30
2018-03-03T04:51:17.484Z,159.85
2018-03-03T04:53:43.428Z,145.93
2018-03-03T04:56:09.399Z,141.95
2018-03-03T04:58:36.071Z,145.68
2018-03-03T05:01:02.036Z,152.30
2018-03-03T05:03:27.979Z,146.62
2018-03-03T05:05:54.655Z,149.85
2018-03-03T05:08:20.731Z,148.30
2018-03-03T05:10:46.664Z,154.15
2018-03-03T05:13:13.367Z,160.85
2018-03-03T05:15:39.295Z,135.60
2018-03-03T05:18:05.251Z,153.70
2018-03-03T05:20:31.948Z,148.10
2018-03-03T05:22:58.025Z,150.05
2018-03-03T05:25:24.702Z,148.35
2018-03-03T05:27:50.639Z,153.12
2018-03-03T05:30:16.601Z,159.18
2018-03-03T05:32:43.296Z,165.70
2018-03-03T05:35:09.277Z,155.25
2018-03-03T05:37:35.207Z,153.62
2018-03-03T05:40:01.213Z,147.40
2018-03-03T05:42:27.886Z,135.02
2018-03-03T05:45:01.584Z,144.20
2018-03-03T05:47:27.559Z,153.35
2018-03-03T05:49:53.523Z,144.05
2018-03-03T05:52:19.455Z,140.23
2018-03-03T05:54:45.416Z,142.75
2018-03-03T05:57:11.483Z,138.70
2018-03-03T05:59:37.422Z,140.35
2018-03-03T06:02:03.400Z,146.93
2018-03-03T06:04:30.091Z,143.60
2018-03-03T06:06:56.028Z,139.20
2018-03-03T06:09:22.125Z,144.95
2018-03-03T06:11:48.064Z,143.32
2018-03-03T06:14:14.027Z,151.25
2018-03-03T06:16:40.708Z,137.05
2018-03-03T06:19:06.655Z,137.07
2018-03-03T06:21:32.583Z,132.52
2018-03-03T06:23:58.588Z,127.10
2018-03-03T06:26:24.549Z,152.62
2018-03-03T06:28:50.467Z,155.80
2018-03-03T06:31:17.284Z,134.67
2018-03-03T06:33:43.212Z,130.98
2018-03-03T06:36:09.185Z,143.15
2018-03-03T06:38:35.113Z,145.43
2018-03-03T06:41:01.136Z,138.80
2018-03-03T06:43:27.072Z,134.05
2018-03-03T06:45:53.067Z,165.73
2018-03-03T06:48:19.007Z,135.32
2018-03-03T06:50:44.960Z,137.98
2018-03-03T06:53:10.924Z,144.62
2018-03-03T06:55:37.599Z,148.82
2018-03-03T06:58:03.687Z,143.85
2018-03-03T07:00:30.375Z,149.40
2018-03-03T07:02:56.379Z,142.18
2018-03-03T07:05:22.328Z,143.85
2018-03-03T07:07:48.279Z,144.48
2018-03-03T07:10:14.993Z,143.50
2018-03-03T07:12:40.966Z,154.20
2018-03-03T07:15:06.917Z,128.10
2018-03-03T07:17:32.923Z,143.60
2018-03-03T07:19:58.852Z,140.70
2018-03-03T07:22:24.888Z,147.33
2018-03-03T07:24:50.789Z,155.75
2018-03-03T07:27:16.744Z,142.73
2018-03-03T07:29:42.667Z,134.57
2018-03-03T07:32:08.640Z,157.97
2018-03-03T07:34:34.607Z,146.18
2018-03-03T07:37:00.558Z,151.95
2018-03-03T07:39:27.314Z,156.45
2018-03-03T07:41:54.157Z,157.32
2018-03-03T07:44:20.133Z,160.65
2018-03-03T07:46:46.059Z,155.23
2018-03-03T07:49:12.040Z,157.57
2018-03-03T07:51:38.028Z,144.93
2018-03-03T07:54:04.704Z,155.57
2018-03-03T07:56:30.696Z,179.63
2018-03-03T07:58:57.405Z,162.27
2018-03-03T08:01:23.372Z,159.73
2018-03-03T08:03:49.304Z,171.98
2018-03-03T08:06:15.320Z,171.77
2018-03-03T08:08:41.279Z,152.50
2018-03-03T08:11:07.307Z,160.68
2018-03-03T08:13:33.241Z,159.27
2018-03-03T08:15:59.200Z,153.38
2018-03-03T08:18:25.924Z,144.85
2018-03-03T08:20:51.903Z,140.32
2018-03-03T08:23:17.860Z,139.52
2018-03-03T08:25:43.800Z,152.07
2018-03-03T08:28:09.885Z,145.82
2018-03-03T08:30:35.849Z,140.85
2018-03-03T08:33:02.561Z,128.70
2018-03-03T08:35:28.686Z,141.55
2018-03-03T08:37:54.673Z,135.23
2018-03-03T08:40:20.624Z,115.22
2018-03-03T08:42:46.627Z,130.45
2018-03-03T08:45:12.627Z,121.37
2018-03-03T08:47:38.576Z,123.78
2018-03-03T08:50:04.672Z,122.85
2018-03-03T08:52:30.623Z,121.15
2018-03-03T08:54:56.620Z,120.28
2018-03-03T08:57:22.561Z,122.25
2018-03-03T08:59:48.529Z,138.90
2018-03-03T09:02:15.258Z,116.47
2018-03-03T09:04:41.242Z,123.95
2018-03-03T09:07:07.348Z,102.03
2018-03-03T09:09:33.301Z,110.75
2018-03-03T09:11:59.276Z,115.50
2018-03-03T09:14:25.245Z,118.87
2018-03-03T09:16:51.231Z,109.07
2018-03-03T09:19:17.441Z,110.07
2018-03-03T09:21:43.436Z,103.43
2018-03-03T09:24:09.477Z,102.10
2018-03-03T09:26:36.218Z,103.82
2018-03-03T09:29:05.185Z,97.60
2018-03-03T09:31:32.314Z,90.95
2018-03-03T09:33:58.765Z,95.32
2018-03-03T09:36:25.782Z,90.50
2018-03-03T09:38:51.787Z,92.85
2018-03-03T09:41:17.913Z,91.53
2018-03-03T09:43:43.904Z,89.00
2018-03-03T09:46:09.943Z,77.93
2018-03-03T09:48:35.903Z,77.20
2018-03-03T09:51:02.064Z,81.07
2018-03-03T09:53:28.080Z,89.47
2018-03-03T09:55:54.109Z,84.25
2018-03-03T09:58:20.886Z,90.82
2018-03-03T10:00:47.033Z,82.12
2018-03-03T10:03:13.029Z,78.78
2018-03-03T10:05:44.787Z,84.50
2018-03-03T10:08:11.105Z,79.68
2018-03-03T10:10:40.370Z,82.65
2018-03-03T10:13:06.685Z,82.12
2018-03-03T10:15:32.895Z,76.93
2018-03-03T10:17:58.838Z,86.75
2018-03-03T10:20:26.523Z,79.03
2018-03-03T10:22:54.313Z,72.70
2018-03-03T10:25:22.453Z,69.25
2018-03-03T10:27:49.984Z,85.00
2018-03-03T10:30:17.112Z,74.95
2018-03-03T10:32:43.781Z,79.70
2018-03-03T10:35:09.825Z,81.95
2018-03-03T10:37:36.313Z,78.90
2018-03-03T10:40:02.377Z,70.30
2018-03-03T10:42:28.545Z,67.85
2018-03-03T10:44:54.521Z,73.07
2018-03-03T10:47:20.964Z,73.85
2018-03-03T10:49:47.096Z,74.30
2018-03-03T10:52:13.117Z,86.65
2018-03-03T10:54:39.144Z,73.25
2018-03-03T10:57:05.117Z,72.25
2018-03-03T10:59:31.103Z,64.97
2018-03-03T11:01:57.111Z,76.28
2018-03-03T11:04:23.067Z,77.00
2018-03-03T11:06:49.060Z,71.75
2018-03-03T11:09:15.036Z,63.87
2018-03-03T11:11:41.184Z,70.57
2018-03-03T11:14:07.258Z,62.95
2018-03-03T11:16:33.251Z,64.30
2018-03-03T11:18:59.418Z,64.78
2018-03-03T11:21:25.434Z,60.53
2018-03-03T11:23:52.286Z,58.53
2018-03-03T11:26:18.404Z,67.53
2018-03-03T11:28:44.627Z,56.70
2018-03-03T11:31:12.613Z,57.58
2018-03-03T11:33:38.681Z,53.03
2018-03-03T11:36:04.840Z,55.97
2018-03-03T11:38:31.644Z,58.20
2018-03-03T11:41:00.815Z,53.13
2018-03-03T11:43:27.429Z,46.47
2018-03-03T11:46:00.634Z,53.20
2018-03-03T11:48:29.810Z,54.70
2018-03-03T11:50:57.989Z,53.95
2018-03-03T11:53:24.774Z,52.83
2018-03-03T11:55:54.667Z,48.80
2018-03-03T11:58:22.772Z,44.50
2018-03-03T12:00:48.920Z,45.17
2018-03-03T12:03:16.681Z,43.08
2018-03-03T12:05:45.105Z,46.37
2018-03-03T12:08:12.429Z,47.90
2018-03-03T12:10:38.745Z,45.92
2018-03-03T12:13:05.836Z,51.83
2018-03-03T12:15:33.291Z,40.05
2018-03-03T12:18:01.173Z,39.25
2018-03-03T12:20:28.606Z,43.22
2018-03-03T12:22:54.727Z,39.88
2018-03-03T12:25:20.721Z,42.25
2018-03-03T12:27:46.741Z,43.33
2018-03-03T12:30:12.800Z,37.90
2018-03-03T12:32:38.816Z,41.05
2018-03-03T12:35:05.815Z,38.78
2018-03-03T12:37:31.863Z,44.97
2018-03-03T12:39:57.930Z,39.80
2018-03-03T12:42:23.946Z,36.03
2018-03-03T12:44:49.947Z,38.03
2018-03-03T12:47:16.701Z,32.13
2018-03-03T12:49:43.496Z,40.85
2018-03-03T12:52:10.402Z,33.75
2018-03-03T12:54:36.401Z,33.67
2018-03-03T12:57:03.310Z,30.37
2018-03-03T12:59:29.313Z,33.90
2018-03-03T13:01:55.316Z,26.67
2018-03-03T13:04:21.270Z,25.40
2018-03-03T13:06:47.405Z,29.27
2018-03-03T13:09:13.411Z,27.42
2018-03-03T13:11:39.395Z,25.75
2018-03-03T13:14:05.358Z,29.02
2018-03-03T13:16:31.314Z,29.83
2018-03-03T13:18:57.396Z,31.50
2018-03-03T13:21:23.345Z,30.10
2018-03-03T13:23:49.307Z,32.03
2018-03-03T13:26:16.013Z,27.97
2018-03-03T13:28:41.970Z,30.52
2018-03-03T13:31:07.972Z,24.37
2018-03-03T13:33:33.936Z,21.20
2018-03-03T13:36:00.101Z,20.00
2018-03-03T13:38:26.036Z,26.58
2018-03-03T13:40:51.976Z,28.47
2018-03-03T13:43:17.973Z,24.77
2018-03-03T13:45:43.928Z,22.45
2018-03-03T13:48:10.059Z,25.20
2018-03-03T13:50:35.996Z,24.40
2018-03-03T13:53:01.981Z,20.53
2018-03-03T13:55:28.699Z,23.12
2018-03-03T13:57:54.649Z,21.75
2018-03-03T14:00:21.514Z,18.20
2018-03-03T14:02:47.484Z,19.60
2018-03-03T14:05:13.595Z,16.90
2018-03-03T14:07:39.552Z,16.75
2018-03-03T14:10:05.544Z,15.80
2018-03-03T14:12:31.487Z,15.05
2018-03-03T14:14:57.416Z,16.10
2018-03-03T14:17:23.424Z,15.63
2018-03-03T14:19:49.396Z,14.70
2018-03-03T14:22:15.417Z,20.95
2018-03-03T14:24:41.397Z,14.20
2018-03-03T14:27:07.377Z,12.32
2018-03-03T14:29:33.382Z,13.68
2018-03-03T14:31:59.339Z,17.17
2018-03-03T14:34:25.436Z,86.37
2018-03-03T14:36:51.541Z,15.82
2018-03-03T14:39:18.249Z,15.95
2018-03-03T14:41:44.216Z,22.62
2018-03-03T14:44:10.221Z,15.87
2018-03-03T14:46:36.913Z,13.43
2018-03-03T14:49:02.851Z,12.82
2018-03-03T14:51:28.816Z,13.67
2018-03-03T14:53:54.780Z,11.90
2018-03-03T14:56:20.784Z,11.50
2018-03-03T14:58:46.752Z,11.32
2018-03-03T15:01:13.443Z,12.15
2018-03-03T15:03:39.409Z,15.27
2018-03-03T15:06:06.173Z,14.25
2018-03-03T15:08:32.325Z,14.63
2018-03-03T15:10:58.427Z,14.38
2018-03-03T15:13:25.172Z,16.73
2018-03-03T15:15:51.213Z,15.70
2018-03-03T15:18:17.205Z,19.45
2018-03-03T15:20:43.951Z,16.87
2018-03-03T15:23:10.652Z,15.20
2018-03-03T15:25:36.763Z,16.42
2018-03-03T15:28:02.773Z,15.43
2018-03-03T15:30:28.789Z,21.48
2018-03-03T15:32:54.761Z,16.90
2018-03-03T15:35:20.752Z,16.25
2018-03-03T15:37:46.724Z,20.33
2018-03-03T15:40:12.670Z,18.17
2018-03-03T15:42:38.673Z,20.53
2018-03-03T15:45:05.605Z,18.40
2018-03-03T15:47:31.579Z,17.15
2018-03-03T15:49:57.561Z,17.40
2018-03-03T15:52:24.252Z,19.02
2018-03-03T15:54:50.205Z,17.75
2018-03-03T15:57:16.921Z,20.57
2018-03-03T15:59:42.854Z,17.45
2018-03-03T16:02:08.975Z,13.50
2018-03-03T16:04:34.936Z,15.80
2018-03-03T16:07:00.932Z,15.10
2018-03-03T16:09:27.639Z,13.95
2018-03-03T16:11:53.624Z,16.95
2018-03-03T16:14:19.589Z,13.80
2018-03-03T16:16:45.606Z,17.90
2018-03-03T16:19:11.549Z,16.35
2018-03-03T16:21:37.568Z,19.27
2018-03-03T16:24:03.719Z,18.12
2018-03-03T16:26:29.701Z,16.27
2018-03-03T16:28:55.686Z,17.77
2018-03-03T16:31:21.672Z,14.00
2018-03-03T16:33:47.773Z,18.43
2018-03-03T16:36:13.741Z,18.83
2018-03-03T16:38:39.748Z,16.08
2018-03-03T16:41:05.708Z,18.50
2018-03-03T16:43:31.897Z,13.10
2018-03-03T16:45:57.903Z,13.07
2018-03-03T16:48:23.841Z,16.60
2018-03-03T16:50:49.924Z,18.48
2018-03-03T16:53:16.598Z,17.40
2018-03-03T16:55:42.599Z,13.85
2018-03-03T16:58:08.583Z,14.87
2018-03-03T17:00:34.584Z,9.90
2018-03-03T17:03:01.300Z,9.88
2018-03-03T17:05:27.422Z,6.03
2018-03-03T17:07:53.370Z,4.68
2018-03-03T17:10:20.095Z,3.30
2018-03-03T17:12:46.097Z,5.95
2018-03-03T17:15:12.090Z,5.35
2018-03-03T17:17:38.084Z,7.30
2018-03-03T17:20:04.790Z,5.72
2018-03-03T17:22:30.880Z,5.28
2018-03-03T17:24:56.806Z,13.43
2018-03-03T17:27:22.808Z,9.77
2018-03-03T17:29:48.785Z,6.18
2018-03-03T17:32:14.796Z,7.35
2018-03-03T17:34:40.872Z,8.43
2018-03-03T17:37:07.561Z,9.60
2018-03-03T17:39:33.581Z,10.82
2018-03-03T17:41:59.559Z,11.10
2018-03-03T17:44:25.567Z,12.73
2018-03-03T17:46:51.520Z,9.45
2018-03-03T17:49:17.537Z,10.93
2018-03-03T17:51:43.486Z,12.57
2018-03-03T17:54:09.636Z,14.87
2018-03-03T17:56:35.598Z,14.43
2018-03-03T17:59:01.553Z,10.07
2018-03-03T18:01:27.536Z,14.45
2018-03-03T18:03:54.235Z,17.17
2018-03-03T18:06:20.229Z,16.60
2018-03-03T18:08:46.182Z,23.48
2018-03-03T18:11:12.326Z,21.37
2018-03-03T18:13:39.035Z,23.35
2018-03-03T18:16:04.997Z,36.75
2018-03-03T18:18:31.708Z,32.00
2018-03-03T18:20:57.674Z,36.72
2018-03-03T18:23:23.646Z,34.25
2018-03-03T18:25:49.647Z,32.40
2018-03-03T18:28:15.994Z,27.73
2018-03-03T18:30:41.974Z,19.62
2018-03-03T18:33:08.091Z,22.30
2018-03-03T18:35:34.196Z,19.35
2018-03-03T18:38:00.168Z,20.33
2018-03-03T18:40:26.144Z,19.70
2018-03-03T18:42:52.997Z,16.87
2018-03-03T18:45:19.720Z,21.23
2018-03-03T18:47:45.706Z,18.05
2018-03-03T18:50:11.657Z,21.77
2018-03-03T18:52:37.612Z,23.38
2018-03-03T18:55:03.580Z,23.77
2018-03-03T18:57:29.555Z,24.80
2018-03-03T18:59:55.628Z,18.40
2018-03-03T19:02:21.648Z,25.42
2018-03-03T19:04:47.599Z,22.50
2018-03-03T19:07:14.356Z,22.75
2018-03-03T19:09:41.041Z,18.62
2018-03-03T19:12:07.041Z,19.50
2018-03-03T19:14:32.987Z,17.87
2018-03-03T19:16:59.028Z,19.87
2018-03-03T19:19:24.986Z,15.95
2018-03-03T19:21:51.000Z,14.60
2018-03-03T19:24:17.695Z,17.65
2018-03-03T19:26:43.693Z,15.55
2018-03-03T19:29:09.650Z,15.70
2018-03-03T19:31:35.640Z,13.10
2018-03-03T19:34:06.466Z,20.60
2018-03-03T19:36:32.438Z,23.05
2018-03-03T19:38:58.432Z,16.92
2018-03-03T19:41:24.521Z,14.80
2018-03-03T19:43:50.473Z,17.83
2018-03-03T19:46:16.467Z,15.68
2018-03-03T19:48:43.170Z,17.80
2018-03-03T19:51:09.250Z,20.15
2018-03-03T19:53:35.198Z,22.30
2018-03-03T19:56:01.190Z,20.17
2018-03-03T19:58:27.144Z,19.70
2018-03-03T20:00:53.141Z,20.60
2018-03-03T20:03:19.175Z,21.37
2018-03-03T20:05:46.000Z,20.12
2018-03-03T20:08:11.962Z,19.65
2018-03-03T20:10:37.921Z,20.05
2018-03-03T20:13:04.693Z,21.83
2018-03-03T20:15:30.621Z,20.50
2018-03-03T20:17:56.573Z,18.30
2018-03-03T20:20:22.568Z,20.95
2018-03-03T20:22:48.651Z,15.13
2018-03-03T20:25:15.408Z,16.73
2018-03-03T20:27:41.397Z,18.05
2018-03-03T20:30:07.382Z,25.45
2018-03-03T20:32:33.369Z,21.02
2018-03-03T20:35:00.077Z,25.65
2018-03-03T20:37:26.085Z,17.75
2018-03-03T20:39:52.107Z,24.27
2018-03-03T20:42:18.224Z,24.55
2018-03-03T20:44:44.193Z,25.33
2018-03-03T20:47:10.872Z,21.55
2018-03-03T20:49:37.637Z,26.98
2018-03-03T21:02:47.870Z,28.30
2018-03-03T21:05:13.837Z,30.27
2018-03-03T21:07:39.871Z,34.65
2018-03-03T21:10:06.014Z,32.97
2018-03-03T21:12:32.027Z,41.55
2018-03-03T21:14:57.977Z,41.10
2018-03-03T21:17:23.969Z,40.50
2018-03-03T21:19:49.945Z,47.60
2018-03-03T21:22:15.946Z,45.10
2018-03-03T21:24:41.895Z,43.00
2018-03-03T21:27:08.786Z,46.83
2018-03-03T21:29:34.755Z,47.20
2018-03-03T21:32:00.757Z,47.15
2018-03-03T21:34:26.723Z,44.65
2018-03-03T21:36:53.560Z,51.22
2018-03-03T21:39:20.297Z,42.40
2018-03-03T21:41:47.012Z,52.35
2018-03-03T21:44:13.109Z,45.22
2018-03-03T21:46:39.076Z,54.83
2018-03-03T21:49:06.001Z,52.40
2018-03-03T21:51:31.976Z,53.25
2018-03-03T21:53:57.973Z,48.87
2018-03-03T21:56:24.698Z,49.63
2018-03-03T21:58:50.674Z,47.25
2018-03-03T22:01:16.617Z,49.85
2018-03-03T22:03:42.577Z,57.53
2018-03-03T22:06:09.414Z,51.17
2018-03-03T22:08:35.373Z,55.75
2018-03-03T22:11:01.348Z,57.33
2018-03-03T22:13:27.318Z,54.45
2018-03-03T22:15:53.328Z,52.88
2018-03-03T22:18:19.271Z,56.00
2018-03-03T22:20:45.364Z,58.43
2018-03-03T22:23:12.073Z,54.35
2018-03-03T22:25:38.020Z,61.10
2018-03-03T22:28:04.014Z,58.08
2018-03-03T22:30:29.990Z,57.80
2018-03-03T22:32:55.987Z,56.47
2018-03-03T22:35:22.852Z,54.05
2018-03-03T22:37:48.822Z,56.03
2018-03-03T22:40:14.934Z,54.92
2018-03-03T22:42:40.905Z,56.15
2018-03-03T22:45:06.901Z,47.22
2018-03-03T22:47:32.838Z,52.50
2018-03-03T22:49:59.658Z,56.77
2018-03-03T22:52:25.605Z,58.33
2018-03-03T22:54:52.340Z,56.20
2018-03-03T22:57:18.276Z,61.92
2018-03-03T22:59:45.005Z,62.67
2018-03-03T23:02:11.741Z,73.55
2018-03-03T23:04:37.676Z,63.40
2018-03-03T23:07:04.384Z,73.13
2018-03-03T23:09:30.350Z,65.85
2018-03-03T23:11:56.428Z,64.22
2018-03-03T23:14:22.396Z,71.55
2018-03-03T23:16:48.395Z,78.78
2018-03-03T23:19:14.398Z,68.60
2018-03-03T23:21:40.376Z,74.78
2018-03-03T23:24:06.485Z,73.18
2018-03-03T23:26:32.434Z,63.05
2018-03-03T23:28:58.400Z,74.43
2018-03-03T23:31:24.363Z,67.22
2018-03-03T23:33:50.333Z,72.07
2018-03-03T23:36:16.319Z,72.70
2018-03-03T23:38:42.413Z,71.47
2018-03-03T23:41:08.440Z,68.55
2018-03-03T23:43:34.541Z,73.12
2018-03-03T23:46:00.508Z,59.60
2018-03-03T23:48:26.464Z,64.75
2018-03-03T23:50:52.450Z,58.30
2018-03-03T23:53:18.399Z,69.93
2018-03-03T23:55:44.519Z,62.63
2018-03-03T23:58:10.465Z,63.17
